Time;durP1;ratioP1;P1;durP2;ratioP2;P2;SDS_P1;SDS_P2;PMS_P1;PMS_P2;Temp;Humidity;BMP_temperature;BMP_pressure;BME280_temperature;BME280_humidity;BME280_pressure;Samples;Min_cycle;Max_cycle;Signal;HPM_P1;HPM_P2
2023/04/03 00:00:50;;;;;;;12.95;6.88;;;0.50;99.90;;;;;;5021411;28;20037;-85
2023/04/03 00:03:16;;;;;;;16.92;8.20;;;0.40;99.90;;;;;;5010653;28;20065;-85
2023/04/03 00:05:42;;;;;;;13.48;7.03;;;1.00;99.90;;;;;;5024513;28;20541;-84
2023/04/03 00:08:09;;;;;;;12.75;7.72;;;0.90;99.90;;;;;;5022831;28;20114;-85
2023/04/03 00:10:35;;;;;;;10.88;7.57;;;0.20;99.90;;;;;;5021958;28;20041;-87
2023/04/03 00:13:01;;;;;;;14.23;7.53;;;0.20;99.90;;;;;;4996611;28;20557;-85
2023/04/03 00:15:26;;;;;;;12.48;7.38;;;0.10;99.90;;;;;;5007880;28;20118;-86
2023/04/03 00:17:52;;;;;;;12.38;7.13;;;0.20;99.90;;;;;;5024465;28;20038;-85
2023/04/03 00:20:17;;;;;;;10.65;7.20;;;0.00;99.90;;;;;;5027757;28;20482;-84
2023/04/03 00:22:43;;;;;;;12.32;8.00;;;-0.80;99.90;;;;;;5023350;28;20460;-84
2023/04/03 00:25:09;;;;;;;12.00;8.07;;;-0.10;99.90;;;;;;5018827;28;20049;-84
2023/04/03 00:27:36;;;;;;;10.93;7.45;;;0.00;99.90;;;;;;5004181;28;20054;-84
2023/04/03 00:30:03;;;;;;;12.48;7.32;;;-0.20;99.90;;;;;;4996761;28;20030;-85
2023/04/03 00:32:28;;;;;;;13.40;8.20;;;-0.10;99.90;;;;;;5039071;28;20034;-85
2023/04/03 00:34:54;;;;;;;12.70;8.55;;;-0.20;99.90;;;;;;5025542;28;20032;-82
2023/04/03 00:37:20;;;;;;;14.18;8.65;;;0.00;99.90;;;;;;5011061;28;20037;-86
2023/04/03 00:39:45;;;;;;;10.60;7.80;;;0.00;99.90;;;;;;5020630;28;20045;-85
2023/04/03 00:42:11;;;;;;;11.75;8.85;;;-0.20;99.90;;;;;;5008169;28;20043;-87
2023/04/03 00:44:36;;;;;;;13.82;7.93;;;-0.50;99.90;;;;;;5010872;28;20402;-87
2023/04/03 00:47:02;;;;;;;11.23;9.13;;;-0.40;99.90;;;;;;5025283;28;20022;-86
2023/04/03 00:49:28;;;;;;;14.05;8.43;;;-0.70;99.90;;;;;;5005393;28;20030;-85
2023/04/03 00:51:53;;;;;;;12.85;8.88;;;-0.20;99.90;;;;;;5008514;28;20029;-84
2023/04/03 00:54:19;;;;;;;13.57;9.27;;;-0.70;99.90;;;;;;5017676;28;20145;-85
2023/04/03 00:56:45;;;;;;;16.02;9.82;;;0.20;99.90;;;;;;5021426;28;20041;-85
2023/04/03 00:59:12;;;;;;;17.02;8.75;;;-0.60;99.90;;;;;;5014147;28;20037;-85
2023/04/03 01:01:38;;;;;;;13.85;8.93;;;-0.60;99.90;;;;;;5010394;28;20504;-86
2023/04/03 01:04:05;;;;;;;13.05;9.02;;;-0.60;99.90;;;;;;5014089;28;20021;-86
2023/04/03 01:06:33;;;;;;;15.13;9.20;;;-0.60;99.90;;;;;;5035253;28;20497;-85
2023/04/03 01:08:59;;;;;;;18.05;9.63;;;-0.60;99.90;;;;;;5019303;28;20030;-85
2023/04/03 01:11:25;;;;;;;12.98;9.57;;;-0.70;99.90;;;;;;5010139;28;20112;-83
2023/04/03 01:13:51;;;;;;;14.90;8.60;;;-0.60;99.90;;;;;;5013221;28;20501;-85
2023/04/03 01:16:17;;;;;;;13.25;9.50;;;-0.40;99.90;;;;;;5011566;28;20022;-86
2023/04/03 01:18:42;;;;;;;17.00;9.25;;;-0.60;99.90;;;;;;5019880;28;20501;-85
2023/04/03 01:21:30;;;;;;;11.05;8.68;;;-0.80;99.90;;;;;;5006165;28;20552;-85
2023/04/03 01:24:18;;;;;;;14.63;8.98;;;-0.70;99.90;;;;;;5025558;28;20034;-85
2023/04/03 01:26:43;;;;;;;10.68;8.45;;;-0.70;99.90;;;;;;5036227;28;20057;-86
2023/04/03 01:29:09;;;;;;;11.38;8.80;;;-0.80;99.90;;;;;;5001484;28;20106;-86
2023/04/03 01:31:34;;;;;;;12.05;9.13;;;-0.90;99.90;;;;;;5021451;28;20099;-86
2023/04/03 01:34:00;;;;;;;16.02;9.48;;;-0.90;99.90;;;;;;5025713;28;20037;-84
2023/04/03 01:36:28;;;;;;;14.77;9.60;;;-0.80;99.90;;;;;;5006147;28;20571;-85
2023/04/03 01:38:55;;;;;;;16.90;10.05;;;-0.70;99.90;;;;;;5017498;28;20041;-86
2023/04/03 01:41:20;;;;;;;15.80;10.40;;;-0.80;99.90;;;;;;5005954;28;20033;-86
2023/04/03 01:43:47;;;;;;;12.88;9.50;;;-0.70;99.90;;;;;;5027688;28;20581;-86
2023/04/03 01:46:13;;;;;;;14.10;9.90;;;-0.90;99.90;;;;;;5005312;28;20087;-86
2023/04/03 01:48:38;;;;;;;14.52;9.73;;;0.30;99.90;;;;;;5027654;28;20442;-85
2023/04/03 01:51:04;;;;;;;14.23;9.65;;;-0.80;99.90;;;;;;5025916;28;20095;-86
2023/04/03 01:53:30;;;;;;;12.70;9.52;;;-0.90;99.90;;;;;;5008360;28;20120;-85
2023/04/03 01:55:55;;;;;;;14.85;9.60;;;-0.80;99.90;;;;;;5008348;28;20477;-83
2023/04/03 01:58:21;;;;;;;18.40;10.18;;;-1.00;99.90;;;;;;5011641;28;20797;-86
2023/04/03 02:00:46;;;;;;;13.80;9.10;;;-1.00;99.90;;;;;;5025974;28;20025;-86
2023/04/03 02:03:12;;;;;;;16.38;10.82;;;-0.90;99.90;;;;;;4997642;28;20041;-85
2023/04/03 02:05:38;;;;;;;16.65;9.85;;;-1.00;99.90;;;;;;5006648;28;20107;-87
2023/04/03 02:08:03;;;;;;;13.07;9.93;;;-0.90;99.90;;;;;;5011670;28;20053;-87
2023/04/03 02:10:29;;;;;;;15.02;9.65;;;-0.80;99.90;;;;;;5019068;28;20043;-86
2023/04/03 02:12:55;;;;;;;17.40;9.82;;;-1.10;99.90;;;;;;5018686;28;20036;-87
2023/04/03 02:15:21;;;;;;;16.15;9.05;;;0.10;99.90;;;;;;5023890;28;20069;-86
2023/04/03 02:17:46;;;;;;;12.65;9.15;;;-0.60;99.90;;;;;;5025095;28;20034;-86
2023/04/03 02:20:12;;;;;;;13.32;9.75;;;-0.90;99.90;;;;;;5021959;28;20033;-86
2023/04/03 02:22:39;;;;;;;16.02;9.65;;;-1.10;99.90;;;;;;5018130;28;20084;-85
2023/04/03 02:25:04;;;;;;;16.23;8.80;;;-1.10;99.90;;;;;;5005916;28;20050;-86
2023/04/03 02:27:31;;;;;;;15.93;8.70;;;-0.90;99.90;;;;;;5035663;28;20034;-85
2023/04/03 02:29:57;;;;;;;14.73;9.40;;;-0.80;99.90;;;;;;5009195;28;20043;-85
2023/04/03 02:32:22;;;;;;;18.30;9.80;;;-0.90;99.90;;;;;;5025227;28;20033;-87
2023/04/03 02:34:48;;;;;;;17.38;9.75;;;-0.80;99.90;;;;;;5009846;28;20076;-85
2023/04/03 02:37:13;;;;;;;15.18;9.93;;;-1.10;99.90;;;;;;5024105;28;20037;-86
2023/04/03 02:39:39;;;;;;;16.00;9.80;;;-1.00;99.90;;;;;;5005267;28;20033;-87
2023/04/03 02:42:04;;;;;;;16.13;9.77;;;-1.10;99.90;;;;;;5014083;28;20029;-86
2023/04/03 02:44:30;;;;;;;15.52;10.55;;;-1.10;99.90;;;;;;5014739;28;20022;-87
2023/04/03 02:46:55;;;;;;;13.40;9.52;;;-1.20;99.90;;;;;;5007662;28;20434;-86
2023/04/03 02:49:21;;;;;;;17.55;10.13;;;-1.40;99.90;;;;;;5006141;28;20049;-86
2023/04/03 02:51:47;;;;;;;17.13;9.75;;;-1.10;99.90;;;;;;5005535;28;20037;-87
2023/04/03 02:54:13;;;;;;;17.23;9.15;;;-1.30;99.90;;;;;;5002728;28;20033;-87
2023/04/03 02:56:38;;;;;;;15.18;9.63;;;-1.40;99.90;;;;;;5036714;28;20037;-82
2023/04/03 02:59:04;;;;;;;14.68;9.45;;;-1.20;99.90;;;;;;5007045;28;20268;-82
2023/04/03 03:01:32;;;;;;;16.67;8.88;;;-0.60;99.90;;;;;;4998681;28;20036;-81
2023/04/03 03:03:58;;;;;;;14.98;9.60;;;-0.20;99.90;;;;;;5005115;28;20172;-82
2023/04/03 03:06:24;;;;;;;17.92;8.77;;;-1.80;99.90;;;;;;5003501;28;20478;-82
2023/04/03 03:08:50;;;;;;;14.60;8.68;;;-1.20;99.90;;;;;;4999452;28;20038;-80
2023/04/03 03:11:15;;;;;;;12.90;8.43;;;-1.40;99.90;;;;;;5019739;28;20562;-81
2023/04/03 03:13:41;;;;;;;15.75;8.65;;;-1.20;99.90;;;;;;5002294;28;20684;-80
2023/04/03 03:16:06;;;;;;;19.55;9.32;;;-1.40;99.90;;;;;;4995225;28;20037;-81
2023/04/03 03:18:32;;;;;;;19.50;9.13;;;-1.40;99.90;;;;;;5014761;28;20068;-81
2023/04/03 03:20:59;;;;;;;13.68;8.35;;;-1.40;99.90;;;;;;5021043;28;20033;-83
2023/04/03 03:23:25;;;;;;;16.65;9.00;;;-0.40;99.90;;;;;;5030866;28;20030;-82
2023/04/03 03:25:59;;;;;;;13.73;8.35;;;-1.00;99.90;;;;;;5014867;28;20030;-83
2023/04/03 03:28:24;;;;;;;13.63;8.48;;;-1.40;99.90;;;;;;5007733;28;20512;-82
2023/04/03 03:30:50;;;;;;;12.05;7.72;;;-1.50;99.90;;;;;;5019220;28;20022;-81
2023/04/03 03:33:17;;;;;;;15.20;8.25;;;-1.40;99.90;;;;;;5005079;28;20045;-83
2023/04/03 03:35:43;;;;;;;13.93;7.35;;;-1.30;99.90;;;;;;5002173;28;20156;-81
2023/04/03 03:38:08;;;;;;;13.48;7.60;;;-1.50;99.90;;;;;;5003939;28;20214;-82
2023/04/03 03:40:34;;;;;;;14.02;7.72;;;-0.60;99.90;;;;;;5015376;28;20033;-82
2023/04/03 03:42:59;;;;;;;10.10;6.47;;;-1.30;99.90;;;;;;5006238;28;20557;-80
2023/04/03 03:45:25;;;;;;;13.65;6.45;;;-1.50;99.90;;;;;;5013843;28;20105;-82
2023/04/03 03:47:50;;;;;;;9.60;5.55;;;-1.40;99.90;;;;;;5013753;28;20048;-83
2023/04/03 03:50:16;;;;;;;13.02;5.53;;;-1.60;99.90;;;;;;5005206;28;20034;-81
2023/04/03 03:52:42;;;;;;;11.68;5.70;;;-1.50;99.90;;;;;;5019158;28;20366;-82
2023/04/03 03:55:07;;;;;;;12.55;5.18;;;-1.50;99.90;;;;;;5005125;28;20468;-82
2023/04/03 03:57:33;;;;;;;10.38;5.47;;;-1.10;99.90;;;;;;5012133;28;20041;-81
2023/04/03 03:59:59;;;;;;;6.45;4.38;;;0.10;99.90;;;;;;4992175;28;20083;-82
2023/04/03 04:02:24;;;;;;;10.13;4.97;;;-1.30;99.90;;;;;;5017470;28;20508;-81
2023/04/03 04:04:50;;;;;;;8.55;4.57;;;-1.30;99.90;;;;;;5003082;28;20026;-82
2023/04/03 04:07:16;;;;;;;9.98;5.22;;;-1.30;99.90;;;;;;5004801;28;20042;-81
2023/04/03 04:09:41;;;;;;;10.93;4.60;;;-1.50;99.90;;;;;;5013280;28;20523;-82
2023/04/03 04:12:07;;;;;;;11.90;4.13;;;-1.70;99.90;;;;;;4996269;28;20060;-82
2023/04/03 04:14:32;;;;;;;11.98;4.45;;;-1.70;99.90;;;;;;5012149;28;20041;-82
2023/04/03 04:16:58;;;;;;;8.38;4.10;;;-1.70;99.90;;;;;;5016554;28;20018;-83
2023/04/03 04:19:23;;;;;;;5.43;3.72;;;-1.80;99.90;;;;;;5013731;28;20022;-82
2023/04/03 04:21:50;;;;;;;11.00;4.35;;;-1.60;99.90;;;;;;5025700;28;20462;-81
2023/04/03 04:24:15;;;;;;;6.90;3.88;;;-1.50;99.90;;;;;;4989548;28;20494;-81
2023/04/03 04:26:41;;;;;;;10.23;4.10;;;-1.70;99.90;;;;;;4996970;28;20052;-81
2023/04/03 04:29:06;;;;;;;8.30;4.30;;;-1.60;99.90;;;;;;5003659;28;20079;-81
2023/04/03 04:31:32;;;;;;;8.55;4.18;;;-1.60;99.90;;;;;;4996553;28;20025;-82
2023/04/03 04:33:57;;;;;;;8.00;4.03;;;-1.60;99.90;;;;;;4998673;28;20061;-82
2023/04/03 04:36:23;;;;;;;11.77;3.95;;;-1.20;99.90;;;;;;5002873;28;20034;-81
2023/04/03 04:38:52;;;;;;;10.07;3.30;;;-1.20;99.90;;;;;;5006037;28;20104;-81
2023/04/03 04:41:20;;;;;;;7.30;3.35;;;-0.70;99.90;;;;;;5006237;28;20054;-81
2023/04/03 04:43:46;;;;;;;7.85;3.72;;;-1.40;99.90;;;;;;5008123;28;20030;-82
2023/04/03 04:46:12;;;;;;;5.97;3.25;;;-1.50;99.90;;;;;;5002054;28;20034;-82
2023/04/03 04:48:37;;;;;;;10.48;3.42;;;-1.50;99.90;;;;;;5003361;28;20037;-82
2023/04/03 04:51:03;;;;;;;12.05;3.42;;;-1.40;99.90;;;;;;5009280;28;20040;-81
2023/04/03 04:53:29;;;;;;;6.63;3.20;;;-0.70;99.90;;;;;;5021767;28;20042;-80
2023/04/03 04:55:55;;;;;;;7.78;3.10;;;0.00;99.90;;;;;;5021360;28;20033;-82
2023/04/03 04:58:20;;;;;;;5.05;3.15;;;-1.50;99.90;;;;;;5006060;28;20610;-81
2023/04/03 05:00:46;;;;;;;6.03;3.35;;;-1.50;99.90;;;;;;5006238;28;20058;-81
2023/04/03 05:03:12;;;;;;;9.73;3.50;;;-1.60;99.90;;;;;;5002344;28;20056;-83
2023/04/03 05:05:37;;;;;;;12.88;3.15;;;-1.20;99.90;;;;;;5014769;28;20085;-81
2023/04/03 05:08:03;;;;;;;9.95;3.55;;;-1.40;99.90;;;;;;5008013;28;20038;-81
2023/04/03 05:10:29;;;;;;;8.93;2.67;;;-1.40;99.90;;;;;;5018069;28;20062;-81
2023/04/03 05:12:54;;;;;;;14.23;3.45;;;-1.50;99.90;;;;;;5032636;28;20104;-81
2023/04/03 05:15:20;;;;;;;9.93;3.20;;;-1.70;99.90;;;;;;5018059;28;20029;-81
2023/04/03 05:17:46;;;;;;;9.77;3.10;;;-1.50;99.90;;;;;;5001772;28;20406;-80
2023/04/03 05:20:11;;;;;;;6.57;3.38;;;-1.30;99.90;;;;;;5029237;28;20060;-81
2023/04/03 05:22:37;;;;;;;11.20;3.70;;;-1.60;99.90;;;;;;5006425;28;20281;-81
2023/04/03 05:25:03;;;;;;;9.27;2.78;;;-1.30;99.90;;;;;;5006535;28;20026;-81
2023/04/03 05:27:29;;;;;;;9.32;3.33;;;-1.10;99.90;;;;;;5017222;28;20064;-81
2023/04/03 05:29:55;;;;;;;16.58;3.70;;;-1.40;99.90;;;;;;5008941;28;20493;-80
2023/04/03 05:32:22;;;;;;;9.95;2.75;;;-1.50;99.90;;;;;;4998521;28;20686;-80
2023/04/03 05:34:47;;;;;;;9.88;3.67;;;-1.50;99.90;;;;;;5015011;28;20034;-81
2023/04/03 05:37:13;;;;;;;6.40;2.45;;;-1.20;99.90;;;;;;5020130;28;20045;-81
2023/04/03 05:39:40;;;;;;;8.90;2.90;;;-1.00;99.90;;;;;;4994954;28;20025;-83
2023/04/03 05:42:06;;;;;;;6.35;3.15;;;-1.30;99.90;;;;;;5007115;28;20540;-81
2023/04/03 05:44:32;;;;;;;12.95;3.78;;;-1.10;99.90;;;;;;5017109;28;20541;-81
2023/04/03 05:46:57;;;;;;;8.23;3.50;;;-1.90;99.90;;;;;;5002035;28;20137;-81
2023/04/03 05:49:23;;;;;;;7.40;3.15;;;-1.30;99.90;;;;;;5004865;28;20490;-81
2023/04/03 05:51:51;;;;;;;7.30;3.10;;;-1.40;99.90;;;;;;5007357;28;20033;-81
2023/04/03 05:54:22;;;;;;;6.75;3.40;;;-1.10;99.90;;;;;;5004091;28;20030;-82
2023/04/03 05:56:51;;;;;;;9.43;3.20;;;-0.90;99.90;;;;;;5001575;28;20767;-81
2023/04/03 05:59:17;;;;;;;9.98;3.40;;;-1.00;99.90;;;;;;5024353;28;20552;-80
2023/04/03 06:01:43;;;;;;;8.60;3.53;;;-1.50;99.90;;;;;;4998885;28;20057;-81
2023/04/03 06:04:08;;;;;;;8.88;3.65;;;-0.40;99.90;;;;;;5005278;28;20558;-80
2023/04/03 06:06:53;;;;;;;10.43;3.47;;;-1.00;99.90;;;;;;5018035;28;20477;-80
2023/04/03 06:09:19;;;;;;;12.75;4.10;;;-0.60;99.90;;;;;;5020281;28;20858;-81
2023/04/03 06:11:45;;;;;;;6.63;3.20;;;-0.70;99.90;;;;;;5013197;28;20040;-81
2023/04/03 06:14:11;;;;;;;12.60;3.92;;;-0.90;99.90;;;;;;5005095;28;20635;-80
2023/04/03 06:16:38;;;;;;;9.43;3.45;;;-0.70;99.90;;;;;;5023393;28;20110;-81
2023/04/03 06:19:04;;;;;;;11.35;3.53;;;-0.50;99.90;;;;;;4998447;28;20112;-81
2023/04/03 06:21:30;;;;;;;9.02;3.58;;;-0.60;99.90;;;;;;5029601;28;20037;-82
2023/04/03 06:23:55;;;;;;;12.43;3.53;;;-0.70;99.90;;;;;;5011209;28;20038;-80
2023/04/03 06:26:22;;;;;;;8.68;3.03;;;-0.80;99.90;;;;;;5013966;28;20034;-82
2023/04/03 06:28:47;;;;;;;12.18;3.70;;;-0.90;99.90;;;;;;5013518;28;20083;-81
2023/04/03 06:31:13;;;;;;;17.27;4.05;;;-0.70;99.90;;;;;;5007804;28;20033;-82
2023/04/03 06:33:39;;;;;;;7.80;2.75;;;-0.60;99.90;;;;;;5004524;28;20037;-83
2023/04/03 06:36:05;;;;;;;10.05;3.15;;;-0.70;99.90;;;;;;5007972;28;20121;-82
2023/04/03 06:38:32;;;;;;;8.20;2.55;;;-0.50;99.90;;;;;;5016997;28;20044;-81
2023/04/03 06:40:58;;;;;;;11.10;4.30;;;-0.30;99.90;;;;;;5004323;28;20034;-84
2023/04/03 06:43:24;;;;;;;9.82;2.55;;;-0.30;99.90;;;;;;5005671;28;20046;-81
2023/04/03 06:45:49;;;;;;;7.97;2.58;;;0.10;99.90;;;;;;5003374;28;20068;-82
2023/04/03 06:48:15;;;;;;;16.00;3.05;;;0.80;99.90;;;;;;5002973;28;20045;-82
2023/04/03 06:50:41;;;;;;;10.15;2.95;;;-0.20;99.90;;;;;;5003944;28;20065;-83
2023/04/03 06:53:06;;;;;;;10.27;2.92;;;0.40;99.90;;;;;;5008474;28;20030;-82
2023/04/03 06:55:32;;;;;;;14.02;3.15;;;0.10;99.90;;;;;;5007461;28;20036;-82
2023/04/03 06:57:58;;;;;;;9.18;2.70;;;0.10;99.90;;;;;;5028823;28;20094;-82
2023/04/03 07:00:24;;;;;;;10.23;3.03;;;1.50;99.90;;;;;;5010646;28;20528;-82
2023/04/03 07:02:51;;;;;;;18.70;3.28;;;0.90;99.90;;;;;;5030759;28;20042;-80
2023/04/03 07:05:17;;;;;;;12.15;3.30;;;0.40;99.90;;;;;;5005798;28;20148;-81
2023/04/03 07:07:42;;;;;;;7.75;2.72;;;0.50;99.90;;;;;;5003950;28;20493;-81
2023/04/03 07:10:08;;;;;;;12.10;3.42;;;0.60;99.90;;;;;;5005081;28;20088;-82
2023/04/03 07:12:35;;;;;;;8.98;2.88;;;2.60;99.90;;;;;;5002992;28;20041;-81
2023/04/03 07:15:01;;;;;;;7.10;2.75;;;1.50;99.90;;;;;;5009814;28;20118;-81
2023/04/03 07:17:26;;;;;;;12.80;3.15;;;2.30;99.90;;;;;;5004624;28;20057;-83
2023/04/03 07:19:52;;;;;;;10.10;3.17;;;1.70;99.90;;;;;;5016455;28;20457;-81
2023/04/03 07:22:18;;;;;;;9.98;3.85;;;-0.50;99.90;;;;;;5008775;28;20037;-82
2023/04/03 07:24:46;;;;;;;10.88;2.88;;;0.70;99.90;;;;;;5008182;28;20022;-82
2023/04/03 07:27:15;;;;;;;7.82;2.47;;;0.80;99.90;;;;;;5014151;28;20041;-81
2023/04/03 07:29:42;;;;;;;9.65;3.65;;;1.40;99.90;;;;;;5016378;28;20040;-81
2023/04/03 07:32:08;;;;;;;6.45;2.35;;;1.10;99.90;;;;;;5033776;28;20040;-79
2023/04/03 07:34:34;;;;;;;12.20;3.03;;;0.80;99.90;;;;;;5008164;28;20033;-82
2023/04/03 07:37:00;;;;;;;7.30;2.45;;;1.80;99.90;;;;;;5017260;28;20063;-81
2023/04/03 07:39:30;;;;;;;6.85;3.10;;;2.20;99.90;;;;;;4999305;28;20026;-81
2023/04/03 07:41:56;;;;;;;9.82;2.50;;;0.80;99.90;;;;;;5012769;28;20033;-78
2023/04/03 07:44:37;;;;;;;;;;;;;;;;;;;;;
2023/04/03 07:47:03;;;;;;;5.72;2.58;;;0.90;99.90;;;;;;5035231;28;20089;-80
2023/04/03 07:49:39;;;;;;;5.93;2.20;;;2.30;99.90;;;;;;5027076;28;20052;-81
2023/04/03 07:52:09;;;;;;;6.05;2.53;;;0.80;99.90;;;;;;5012460;28;20025;-81
2023/04/03 07:54:35;;;;;;;6.95;2.80;;;1.40;99.90;;;;;;4996273;28;20052;-82
2023/04/03 07:57:01;;;;;;;5.68;2.08;;;0.80;99.90;;;;;;5037862;28;20029;-81
2023/04/03 07:59:26;;;;;;;6.35;2.15;;;3.20;99.90;;;;;;5018681;28;20084;-82
2023/04/03 08:01:52;;;;;;;10.18;2.88;;;1.40;99.90;;;;;;5020473;28;20034;-80
2023/04/03 08:04:18;;;;;;;6.75;1.77;;;3.20;99.90;;;;;;5022139;28;20045;-82
2023/04/03 08:06:44;;;;;;;8.98;1.65;;;2.10;99.90;;;;;;5015190;28;20098;-80
2023/04/03 08:09:10;;;;;;;5.07;1.75;;;2.20;99.90;;;;;;5007337;28;20053;-84
2023/04/03 08:11:36;;;;;;;5.20;1.55;;;3.60;99.90;;;;;;5020891;28;20021;-82
2023/04/03 08:14:04;;;;;;;4.90;1.95;;;2.70;99.90;;;;;;5027756;28;20025;-82
2023/04/03 08:16:30;;;;;;;2.85;1.50;;;2.30;99.90;;;;;;5036948;28;20108;-83
2023/04/03 08:18:59;;;;;;;8.80;2.00;;;3.00;99.90;;;;;;5012939;28;20078;-81
2023/04/03 08:21:25;;;;;;;8.05;2.08;;;2.70;99.90;;;;;;4992357;28;20592;-83
2023/04/03 08:23:51;;;;;;;8.55;1.77;;;3.70;99.90;;;;;;5005267;28;20036;-83
2023/04/03 08:26:19;;;;;;;8.23;1.65;;;3.10;99.90;;;;;;5009398;28;20033;-82
2023/04/03 08:28:45;;;;;;;3.92;1.70;;;1.60;99.90;;;;;;5016475;28;20048;-82
2023/04/03 08:31:13;;;;;;;4.93;1.85;;;2.30;99.90;;;;;;5010864;28;20037;-82
2023/04/03 08:33:39;;;;;;;4.70;1.00;;;1.50;99.90;;;;;;5016131;28;20034;-80
2023/04/03 08:36:15;;;;;;;6.60;1.67;;;4.40;99.90;;;;;;5007415;28;20049;-81
2023/04/03 08:38:41;;;;;;;6.10;1.45;;;3.10;99.90;;;;;;5013464;28;20093;-82
2023/04/03 08:41:30;;;;;;;3.40;1.27;;;3.70;99.90;;;;;;5034513;28;20548;-79
2023/04/03 08:44:22;;;;;;;9.18;2.03;;;3.80;99.90;;;;;;5026785;28;20055;-81
2023/04/03 08:47:00;;;;;;;4.20;1.15;;;2.90;99.90;;;;;;5025118;28;20126;-81
2023/04/03 08:49:51;;;;;;;8.65;1.80;;;2.50;99.90;;;;;;5023471;28;20026;-81
2023/04/03 08:52:34;;;;;;;6.07;1.48;;;3.00;99.90;;;;;;5028309;28;20034;-78
2023/04/03 08:55:01;;;;;;;6.88;1.75;;;2.90;99.90;;;;;;5015991;28;20044;-80
2023/04/03 08:57:41;;;;;;;3.20;1.23;;;2.80;99.90;;;;;;5031305;28;20453;-81
2023/04/03 09:00:15;;;;;;;3.30;1.08;;;3.30;99.90;;;;;;5002750;28;20038;-80
2023/04/03 09:02:46;;;;;;;6.80;1.45;;;3.40;99.90;;;;;;5031755;28;20494;-81
2023/04/03 09:05:43;;;;;;;5.25;1.30;;;3.40;99.90;;;;;;5024608;28;20034;-80
2023/04/03 09:08:44;;;;;;;6.00;1.45;;;2.90;99.90;;;;;;5022118;28;20119;-80
2023/04/03 09:11:32;;;;;;;2.95;1.30;;;3.60;99.90;;;;;;5036306;28;20037;-80
2023/04/03 09:14:26;;;;;;;4.63;0.90;;;3.70;99.90;;;;;;5051716;28;20029;-80
2023/04/03 09:17:04;;;;;;;3.30;1.20;;;4.00;99.90;;;;;;5053012;28;20045;-81
2023/04/03 09:19:37;;;;;;;3.65;0.98;;;3.80;99.90;;;;;;5042369;28;20071;-81
2023/04/03 09:22:09;;;;;;;3.20;1.20;;;3.80;99.90;;;;;;5023220;28;20036;-81
2023/04/03 09:24:35;;;;;;;3.70;1.10;;;5.60;99.90;;;;;;5042711;28;20030;-80
2023/04/03 09:27:05;;;;;;;3.85;1.00;;;4.10;99.90;;;;;;5027424;28;20044;-80
2023/04/03 09:29:31;;;;;;;4.40;0.90;;;4.50;99.90;;;;;;5014787;28;20054;-80
2023/04/03 09:32:00;;;;;;;3.92;1.45;;;4.70;99.90;;;;;;5018047;28;20601;-80
2023/04/03 09:34:31;;;;;;;4.80;1.60;;;4.40;99.90;;;;;;5019838;28;20437;-78
2023/04/03 09:36:59;;;;;;;5.53;1.58;;;4.20;99.90;;;;;;5009304;28;22721;-77
2023/04/03 09:39:27;;;;;;;3.80;1.25;;;3.90;99.90;;;;;;5018537;28;20030;-78
2023/04/03 09:42:02;;;;;;;2.35;0.98;;;4.00;99.90;;;;;;5006171;28;20477;-78
2023/04/03 09:44:32;;;;;;;2.35;0.55;;;4.30;99.90;;;;;;5024708;28;20542;-79
2023/04/03 09:46:58;;;;;;;3.58;1.02;;;4.50;99.90;;;;;;5031541;28;20030;-77
2023/04/03 09:49:24;;;;;;;5.40;1.20;;;4.60;99.90;;;;;;5008669;28;20425;-77
2023/04/03 09:51:50;;;;;;;3.63;1.00;;;4.60;99.90;;;;;;5019374;28;20204;-77
2023/04/03 09:54:37;;;;;;;2.83;0.98;;;5.00;99.90;;;;;;5024722;28;20101;-77
2023/04/03 09:57:13;;;;;;;2.40;0.82;;;5.80;99.90;;;;;;5019160;28;20678;-77
2023/04/03 09:59:43;;;;;;;;;;;5.70;99.90;;;;;;5020109;28;20095;-78
2023/04/03 10:02:30;;;;;;;3.33;0.45;;;5.90;99.90;;;;;;5006780;28;19920;-77
2023/04/03 10:04:56;;;;;;;6.47;1.27;;;5.50;99.90;;;;;;5002715;28;20028;-77
2023/04/03 10:07:36;;;;;;;2.30;0.80;;;5.60;99.90;;;;;;5020047;28;20036;-77
2023/04/03 10:10:25;;;;;;;1.50;0.95;;;5.90;99.90;;;;;;5030595;28;20048;-77
2023/04/03 10:13:13;;;;;;;3.88;1.02;;;7.10;99.90;;;;;;4999418;28;20042;-77
2023/04/03 10:15:53;;;;;;;4.00;1.08;;;7.10;99.90;;;;;;5016658;28;20088;-78
2023/04/03 10:18:27;;;;;;;3.33;0.88;;;6.10;99.90;;;;;;5005843;28;20108;-78
2023/04/03 10:20:55;;;;;;;4.75;0.70;;;6.30;99.90;;;;;;5033826;28;20643;-77
2023/04/03 10:23:41;;;;;;;5.40;1.60;;;6.50;99.90;;;;;;5026397;28;20095;-77
2023/04/03 10:26:29;;;;;;;6.57;1.45;;;6.20;99.90;;;;;;5016547;28;20032;-77
2023/04/03 10:29:09;;;;;;;2.30;1.02;;;6.10;99.90;;;;;;5031654;28;20060;-77
2023/04/03 10:32:02;;;;;;;4.82;0.90;;;6.00;99.90;;;;;;5005466;28;20413;-77
2023/04/03 10:34:30;;;;;;;4.25;1.33;;;6.10;99.90;;;;;;5008188;28;20582;-78
2023/04/03 10:37:06;;;;;;;3.95;1.00;;;6.10;99.90;;;;;;5024971;28;20108;-77
2023/04/03 10:40:02;;;;;;;3.38;0.93;;;7.00;99.90;;;;;;5019440;28;20478;-77
2023/04/03 10:42:47;;;;;;;2.08;0.98;;;6.40;99.90;;;;;;4983419;28;20034;-77
2023/04/03 10:45:27;;;;;;;2.50;1.15;;;7.30;99.90;;;;;;5019187;28;20389;-77
2023/04/03 10:48:11;;;;;;;3.05;1.13;;;8.00;99.90;;;;;;5035148;28;20103;-76
2023/04/03 10:51:06;;;;;;;4.57;1.25;;;7.40;99.90;;;;;;5024085;28;20421;-78
2023/04/03 10:53:37;;;;;;;6.35;1.63;;;6.80;99.90;;;;;;4992976;28;20036;-82
2023/04/03 10:56:13;;;;;;;1.88;0.88;;;7.00;99.90;;;;;;5023408;28;20041;-82
2023/04/03 10:58:44;;;;;;;4.20;1.20;;;6.80;99.90;;;;;;5037597;28;20033;-81
2023/04/03 11:01:21;;;;;;;3.13;1.05;;;6.70;99.90;;;;;;5033073;28;20057;-82
2023/04/03 11:03:50;;;;;;;3.38;1.40;;;6.90;99.90;;;;;;5002049;28;20033;-81
2023/04/03 11:06:16;;;;;;;2.85;1.00;;;8.00;99.90;;;;;;5011653;28;20099;-83
2023/04/03 11:09:03;;;;;;;2.42;1.20;;;7.20;99.90;;;;;;5012497;28;20042;-81
2023/04/03 11:11:36;;;;;;;2.75;1.08;;;7.80;99.90;;;;;;5024373;28;20088;-83
2023/04/03 11:14:27;;;;;;;4.00;1.10;;;7.00;99.90;;;;;;5024020;28;20390;-82
2023/04/03 11:17:18;;;;;;;4.00;1.05;;;8.00;99.90;;;;;;5017844;28;21075;-82
2023/04/03 11:20:37;;;;;;;5.05;1.27;;;8.00;99.90;;;;;;5030165;28;20493;-81
2023/04/03 11:23:12;;;;;;;3.25;0.90;;;7.80;99.90;;;;;;5010307;28;20033;-82
2023/04/03 11:25:37;;;;;;;3.90;1.13;;;7.40;99.90;;;;;;5022108;28;20041;-81
2023/04/03 11:28:05;;;;;;;2.63;1.20;;;7.30;99.90;;;;;;4994824;28;20029;-83
2023/04/03 11:31:01;;;;;;;2.85;1.27;;;7.30;99.90;;;;;;5006115;28;20397;-81
2023/04/03 11:33:42;;;;;;;5.20;1.02;;;7.20;99.90;;;;;;5005875;28;20040;-81
2023/04/03 11:36:18;;;;;;;4.22;0.98;;;8.10;99.90;;;;;;5019878;28;20026;-81
2023/04/03 11:38:44;;;;;;;8.82;1.15;;;7.80;99.90;;;;;;5022317;28;20044;-81
2023/04/03 11:41:10;;;;;;;4.53;1.00;;;8.00;99.90;;;;;;5009556;28;20030;-81
2023/04/03 11:43:41;;;;;;;3.83;1.30;;;8.30;99.90;;;;;;5029352;28;20069;-81
2023/04/03 11:46:06;;;;;;;3.65;0.98;;;8.50;99.90;;;;;;5009135;28;20041;-81
2023/04/03 11:48:35;;;;;;;6.85;1.02;;;7.90;99.90;;;;;;5020564;28;20371;-82
2023/04/03 11:51:12;;;;;;;2.67;0.85;;;7.70;99.90;;;;;;5023747;28;20083;-81
2023/04/03 11:53:39;;;;;;;2.75;1.10;;;8.20;99.90;;;;;;5024098;28;20052;-81
2023/04/03 11:56:23;;;;;;;2.83;1.25;;;8.20;99.90;;;;;;5012710;28;20038;-82
2023/04/03 11:59:10;;;;;;;5.65;1.48;;;8.10;99.90;;;;;;4683858;28;10000324;-80
2023/04/03 12:01:43;;;;;;;4.85;1.20;;;8.00;99.90;;;;;;5020958;28;20037;-81
2023/04/03 12:04:10;;;;;;;5.13;1.00;;;7.90;99.90;;;;;;5026386;28;20033;-81
2023/04/03 12:06:36;;;;;;;2.83;1.23;;;8.50;99.90;;;;;;5002533;28;20703;-80
2023/04/03 12:09:02;;;;;;;3.95;1.05;;;8.00;99.90;;;;;;5024019;28;20137;-80
2023/04/03 12:11:31;;;;;;;1.77;0.80;;;7.90;99.90;;;;;;5017882;28;20127;-82
2023/04/03 12:13:57;;;;;;;4.15;1.45;;;8.50;99.90;;;;;;5006151;28;20030;-81
2023/04/03 12:16:37;;;;;;;3.03;1.00;;;8.40;99.90;;;;;;5033007;28;20505;-80
2023/04/03 12:19:15;;;;;;;1.80;0.88;;;8.10;99.90;;;;;;5022493;28;20043;-81
2023/04/03 12:21:51;;;;;;;2.08;0.60;;;8.80;99.90;;;;;;5017193;28;20038;-81
2023/04/03 12:24:17;;;;;;;;;;;9.40;99.90;;;;;;5016846;28;20478;-80
2023/04/03 12:26:50;;;;;;;1.57;0.57;;;9.70;99.90;;;;;;5026951;28;19914;-80
2023/04/03 12:29:33;;;;;;;1.85;1.00;;;9.50;99.90;;;;;;5014751;28;20030;-80
2023/04/03 12:32:32;;;;;;;2.25;0.90;;;10.00;99.90;;;;;;5009164;28;20037;-81
2023/04/03 12:35:06;;;;;;;1.65;0.70;;;9.40;99.90;;;;;;5023300;28;20917;-81
2023/04/03 12:37:58;;;;;;;2.65;0.63;;;9.60;99.90;;;;;;5035322;28;20072;-82
2023/04/03 12:40:42;;;;;;;2.30;0.80;;;9.70;99.90;;;;;;5032847;28;20068;-80
2023/04/03 12:43:28;;;;;;;3.92;0.93;;;9.80;99.90;;;;;;5018194;28;20021;-81
2023/04/03 12:46:03;;;;;;;5.50;1.30;;;9.60;99.90;;;;;;5023524;28;20037;-81
2023/04/03 12:48:31;;;;;;;2.90;1.00;;;9.40;99.90;;;;;;5021018;28;20092;-81
2023/04/03 12:50:57;;;;;;;4.13;0.93;;;9.40;99.90;;;;;;5032768;28;20284;-81
2023/04/03 12:53:24;;;;;;;3.63;0.90;;;9.60;99.90;;;;;;5019049;28;20053;-81
2023/04/03 12:56:20;;;;;;;4.90;1.33;;;10.00;99.90;;;;;;5024808;28;20518;-81
2023/04/03 12:58:46;;;;;;;4.93;1.20;;;9.00;99.90;;;;;;4997928;28;20572;-80
2023/04/03 13:01:17;;;;;;;4.32;0.80;;;9.10;99.90;;;;;;5029217;28;20041;-81